createdAt,value
2023-01-11T00:01:42.977Z,40.23
2023-01-11T00:04:12.819Z,47.97
2023-01-11T00:06:41.270Z,38.70
2023-01-11T00:09:09.747Z,39.00
2023-01-11T00:11:38.224Z,43.50
2023-01-11T00:14:07.016Z,55.07
2023-01-11T00:16:35.886Z,43.83
2023-01-11T00:19:04.412Z,53.70
2023-01-11T00:21:34.268Z,48.57
2023-01-11T00:24:02.719Z,49.07
2023-01-11T00:26:31.305Z,49.40
2023-01-11T00:28:59.737Z,58.10
2023-01-11T00:31:28.344Z,48.07
2023-01-11T00:33:56.788Z,45.00
2023-01-11T00:36:25.280Z,53.70
2023-01-11T00:38:55.589Z,55.70
2023-01-11T00:41:42.300Z,49.27
2023-01-11T00:44:30.051Z,54.40
2023-01-11T00:47:16.130Z,49.87
2023-01-11T00:49:45.117Z,49.40
2023-01-11T00:52:14.124Z,48.90
2023-01-11T00:54:44.215Z,47.83
2023-01-11T00:57:13.143Z,48.37
2023-01-11T00:59:41.612Z,46.67
2023-01-11T01:02:11.342Z,47.73
2023-01-11T01:04:40.388Z,43.77
2023-01-11T01:07:09.620Z,49.87
2023-01-11T01:09:38.057Z,48.20
2023-01-11T01:12:09.376Z,51.30
2023-01-11T01:14:37.110Z,49.17
2023-01-11T01:17:08.376Z,44.40
2023-01-11T01:19:39.456Z,58.70
2023-01-11T01:22:07.993Z,47.07
2023-01-11T01:24:36.690Z,50.70
2023-01-11T01:27:05.397Z,48.53
2023-01-11T01:29:35.439Z,47.70
2023-01-11T01:32:05.937Z,42.33
2023-01-11T01:34:38.568Z,49.40
2023-01-11T01:37:11.966Z,42.27
2023-01-11T01:39:40.634Z,39.43
2023-01-11T01:42:18.532Z,41.53
2023-01-11T01:45:04.165Z,38.53
2023-01-11T01:47:46.786Z,43.57
2023-01-11T01:50:24.003Z,45.07
2023-01-11T01:52:58.788Z,37.80
2023-01-11T01:55:30.870Z,37.03
2023-01-11T01:58:01.218Z,37.77
2023-01-11T02:00:31.180Z,34.77
2023-01-11T02:03:02.338Z,41.07
2023-01-11T02:05:31.083Z,46.70
2023-01-11T02:08:00.953Z,36.87
2023-01-11T02:10:29.362Z,44.33
2023-01-11T02:13:03.002Z,38.63
2023-01-11T02:15:33.597Z,40.07
2023-01-11T02:18:01.953Z,49.77
2023-01-11T02:20:52.963Z,35.43
2023-01-11T02:24:17.096Z,38.57
2023-01-11T02:27:34.612Z,40.87
2023-01-11T02:30:25.588Z,38.47
2023-01-11T02:33:05.295Z,41.00
2023-01-11T02:35:44.071Z,36.37
2023-01-11T02:38:18.681Z,45.17
2023-01-11T02:40:59.210Z,36.70
2023-01-11T02:43:52.251Z,34.33
2023-01-11T02:46:31.701Z,39.10
2023-01-11T02:49:07.635Z,40.43
2023-01-11T02:51:42.641Z,36.00
2023-01-11T02:54:14.748Z,36.83
2023-01-11T02:56:47.378Z,37.40
2023-01-11T02:59:20.682Z,36.50
2023-01-11T03:01:55.629Z,35.73
2023-01-11T03:04:27.067Z,36.23
2023-01-11T03:07:15.271Z,40.57
2023-01-11T03:10:02.930Z,29.17
2023-01-11T03:12:52.428Z,32.90
2023-01-11T03:15:41.206Z,35.77
2023-01-11T03:18:29.382Z,27.97
2023-01-11T03:21:12.426Z,35.63
2023-01-11T03:23:49.571Z,37.80
2023-01-11T03:26:29.427Z,29.37
2023-01-11T03:29:10.380Z,31.17
2023-01-11T03:31:41.981Z,35.13
2023-01-11T03:34:20.190Z,30.00
2023-01-11T03:36:56.080Z,27.50
2023-01-11T03:39:31.165Z,30.77
2023-01-11T03:42:05.637Z,30.97
2023-01-11T03:44:43.763Z,26.63
2023-01-11T03:47:17.942Z,32.30
2023-01-11T03:49:52.952Z,34.73
2023-01-11T03:52:26.190Z,35.97
2023-01-11T03:54:57.057Z,35.20
2023-01-11T03:57:30.697Z,35.83
2023-01-11T03:59:59.378Z,32.47
2023-01-11T04:02:36.052Z,33.13
2023-01-11T04:05:10.594Z,32.50
2023-01-11T04:07:39.262Z,33.53
2023-01-11T04:10:09.169Z,33.00
2023-01-11T04:12:37.602Z,39.90
2023-01-11T04:15:06.921Z,34.47
2023-01-11T04:17:35.281Z,35.87
2023-01-11T04:20:05.204Z,30.80
2023-01-11T04:22:33.575Z,39.43
2023-01-11T04:25:02.032Z,37.73
2023-01-11T04:27:30.416Z,40.80
2023-01-11T04:29:58.945Z,29.17
2023-01-11T04:32:27.286Z,36.93
2023-01-11T04:34:55.669Z,32.40
2023-01-11T04:37:25.503Z,44.27
2023-01-11T04:39:53.978Z,37.27
2023-01-11T04:42:21.681Z,30.20
2023-01-11T04:44:51.671Z,31.53
2023-01-11T04:47:22.897Z,33.30
2023-01-11T04:49:51.828Z,32.43
2023-01-11T04:52:21.873Z,34.13
2023-01-11T04:54:52.595Z,34.83
2023-01-11T04:57:21.283Z,34.47
2023-01-11T04:59:50.583Z,32.87
2023-01-11T05:02:19.478Z,34.53
2023-01-11T05:04:47.819Z,28.80
2023-01-11T05:07:16.134Z,40.10
2023-01-11T05:09:45.109Z,33.07
2023-01-11T05:12:14.897Z,34.70
2023-01-11T05:14:43.252Z,32.07
2023-01-11T05:17:15.927Z,38.77
2023-01-11T05:19:44.817Z,35.97
2023-01-11T05:22:13.256Z,31.43
2023-01-11T05:24:42.148Z,29.13
2023-01-11T05:27:10.576Z,31.90
2023-01-11T05:29:40.332Z,25.73
2023-01-11T05:32:08.975Z,25.73
2023-01-11T05:34:37.424Z,22.47
2023-01-11T05:37:05.916Z,27.00
2023-01-11T05:39:34.321Z,27.33
2023-01-11T05:42:02.756Z,18.67
2023-01-11T05:44:48.688Z,21.63
2023-01-11T05:47:18.488Z,20.27
2023-01-11T05:49:48.742Z,22.47
2023-01-11T05:52:17.298Z,27.30
2023-01-11T05:54:45.805Z,22.10
2023-01-11T05:57:14.763Z,25.93
2023-01-11T05:59:43.182Z,28.80
2023-01-11T06:02:11.608Z,20.83
2023-01-11T06:04:41.549Z,25.90
2023-01-11T06:07:10.565Z,24.83
2023-01-11T06:09:38.958Z,24.53
2023-01-11T06:12:07.983Z,27.87
2023-01-11T06:14:38.230Z,25.60
2023-01-11T06:17:06.857Z,24.67
2023-01-11T06:19:35.231Z,22.30
2023-01-11T06:22:05.325Z,26.33
2023-01-11T06:24:34.133Z,28.27
2023-01-11T06:27:02.588Z,26.60
2023-01-11T06:29:31.234Z,22.83
2023-01-11T06:32:01.946Z,24.83
2023-01-11T06:34:30.724Z,24.13
2023-01-11T06:36:59.105Z,25.00
2023-01-11T06:39:28.855Z,26.57
2023-01-11T06:41:57.312Z,25.50
2023-01-11T06:44:25.739Z,21.90
2023-01-11T06:46:54.153Z,23.77
2023-01-11T06:49:22.595Z,30.30
2023-01-11T06:51:51.319Z,26.43
2023-01-11T06:54:23.059Z,24.13
2023-01-11T06:56:53.187Z,25.53
2023-01-11T06:59:22.015Z,26.17
2023-01-11T07:01:51.033Z,26.23
2023-01-11T07:04:20.895Z,27.47
2023-01-11T07:06:54.395Z,26.47
2023-01-11T07:09:22.843Z,28.20
2023-01-11T07:11:53.155Z,23.50
2023-01-11T07:14:25.115Z,24.17
2023-01-11T07:16:53.619Z,23.80
2023-01-11T07:19:22.238Z,22.10
2023-01-11T07:21:50.812Z,22.33
2023-01-11T07:24:20.393Z,24.37
2023-01-11T07:26:48.862Z,24.83
2023-01-11T07:29:18.954Z,24.80
2023-01-11T07:31:48.474Z,21.33
2023-01-11T07:34:17.348Z,23.27
2023-01-11T07:36:46.108Z,23.10
2023-01-11T07:39:14.474Z,20.00
2023-01-11T07:42:00.552Z,19.60
2023-01-11T07:44:30.510Z,24.40
2023-01-11T07:46:59.184Z,22.03
2023-01-11T07:49:28.377Z,19.77
2023-01-11T07:51:56.816Z,22.43
2023-01-11T07:54:25.840Z,23.13
2023-01-11T07:56:56.696Z,20.57
2023-01-11T07:59:25.171Z,19.30
2023-01-11T08:01:55.245Z,19.00
2023-01-11T08:04:24.096Z,16.37
2023-01-11T08:06:52.797Z,15.00
2023-01-11T08:09:21.635Z,21.33
2023-01-11T08:12:09.953Z,17.63
2023-01-11T08:14:41.307Z,19.23
2023-01-11T08:17:14.695Z,24.20
2023-01-11T08:19:43.934Z,21.27
2023-01-11T08:22:12.666Z,23.70
2023-01-11T08:24:41.349Z,20.00
2023-01-11T08:27:09.981Z,20.03
2023-01-11T08:29:39.769Z,20.07
2023-01-11T08:32:08.317Z,17.60
2023-01-11T08:34:38.184Z,22.53
2023-01-11T08:37:06.795Z,18.87
2023-01-11T08:39:35.724Z,19.77
2023-01-11T08:42:04.202Z,21.07
2023-01-11T08:44:34.796Z,19.20
2023-01-11T08:47:03.970Z,19.43
2023-01-11T08:49:32.506Z,24.50
2023-01-11T08:52:02.378Z,22.63
2023-01-11T08:54:30.856Z,23.80
2023-01-11T08:56:59.368Z,17.53
2023-01-11T08:59:28.001Z,20.17
2023-01-11T09:01:56.600Z,19.77
2023-01-11T09:04:25.873Z,23.33
2023-01-11T09:06:54.652Z,21.50
2023-01-11T09:09:25.324Z,20.20
2023-01-11T09:11:57.252Z,19.13
2023-01-11T09:14:28.603Z,20.50
2023-01-11T09:16:57.777Z,21.47
2023-01-11T09:19:26.591Z,22.90
2023-01-11T09:21:58.191Z,22.37
2023-01-11T09:24:28.129Z,21.00
2023-01-11T09:26:58.870Z,18.00
2023-01-11T09:29:27.571Z,22.37
2023-01-11T09:31:56.036Z,17.90
2023-01-11T09:34:25.531Z,19.37
2023-01-11T09:36:54.695Z,20.00
2023-01-11T09:39:26.461Z,19.70
2023-01-11T09:42:36.664Z,20.97
2023-01-11T09:45:15.338Z,21.37
2023-01-11T09:47:51.300Z,19.20
2023-01-11T09:50:24.816Z,20.60
2023-01-11T09:52:58.638Z,21.57
2023-01-11T09:55:36.156Z,21.07
2023-01-11T09:58:42.933Z,19.33
2023-01-11T10:01:19.148Z,19.13
2023-01-11T10:04:25.996Z,21.20
2023-01-11T10:07:37.433Z,18.33
2023-01-11T10:18:42.927Z,18.17
2023-01-11T10:19:39.472Z,23.13
2023-01-11T10:22:20.908Z,22.50
2023-01-11T10:24:55.386Z,18.33
2023-01-11T10:27:32.504Z,19.63
2023-01-11T10:30:33.239Z,19.83
2023-01-11T10:33:18.520Z,20.60
2023-01-11T10:36:10.594Z,20.13
2023-01-11T10:39:03.376Z,21.17
2023-01-11T10:41:43.036Z,19.67
2023-01-11T10:44:23.655Z,19.40
2023-01-11T10:46:56.767Z,20.03
2023-01-11T10:49:36.294Z,24.73
2023-01-11T10:52:23.466Z,18.43
2023-01-11T10:54:56.049Z,17.80
2023-01-11T10:58:01.474Z,18.47
2023-01-11T11:00:39.847Z,21.03
2023-01-11T11:03:40.028Z,18.53
2023-01-11T11:06:14.870Z,17.87
2023-01-11T11:08:53.645Z,19.70
2023-01-11T11:11:30.749Z,20.27
2023-01-11T11:14:05.485Z,20.63
2023-01-11T11:16:55.631Z,21.53
2023-01-11T11:19:32.895Z,19.87
2023-01-11T11:22:02.147Z,20.20
2023-01-11T11:24:38.047Z,19.57
2023-01-11T11:27:18.129Z,21.63
2023-01-11T11:29:53.047Z,21.80
2023-01-11T11:32:30.147Z,16.77
2023-01-11T11:34:59.980Z,18.07
2023-01-11T11:37:34.648Z,21.30
2023-01-11T11:40:05.519Z,14.73
2023-01-11T11:42:33.914Z,16.07
2023-01-11T11:45:19.407Z,18.40
2023-01-11T11:48:06.740Z,16.70
2023-01-11T11:50:44.800Z,17.37
2023-01-11T11:53:33.581Z,16.60
2023-01-11T11:56:19.196Z,14.80
2023-01-11T11:58:48.843Z,17.00
2023-01-11T12:01:31.570Z,16.20
2023-01-11T12:04:04.506Z,15.53
2023-01-11T12:06:34.328Z,17.97
2023-01-11T12:09:05.391Z,17.07
2023-01-11T12:11:39.088Z,15.37
2023-01-11T12:14:19.059Z,16.87
2023-01-11T12:16:48.130Z,20.23
2023-01-11T12:19:29.682Z,19.27
2023-01-11T12:22:18.879Z,15.67
2023-01-11T12:24:48.670Z,15.67
2023-01-11T12:27:37.445Z,16.30
2023-01-11T12:30:21.076Z,13.80
2023-01-11T12:33:29.366Z,14.27
2023-01-11T12:36:05.619Z,13.63
2023-01-11T12:38:55.232Z,14.30
2023-01-11T12:41:54.388Z,13.43
2023-01-11T12:44:46.285Z,11.97
2023-01-11T12:48:01.835Z,11.93
2023-01-11T12:50:35.305Z,16.03
2023-01-11T12:53:53.507Z,12.70
2023-01-11T12:56:45.145Z,15.27
2023-01-11T12:59:31.337Z,19.03
2023-01-11T13:02:19.455Z,13.53
2023-01-11T13:05:00.339Z,15.37
2023-01-11T13:07:51.727Z,13.40
2023-01-11T13:10:38.163Z,13.20
2023-01-11T13:13:13.702Z,13.83
2023-01-11T13:15:54.600Z,15.43
2023-01-11T13:18:38.136Z,14.37
2023-01-11T13:21:19.581Z,14.20
2023-01-11T13:23:53.329Z,13.83
2023-01-11T13:26:28.202Z,13.60
2023-01-11T13:29:03.521Z,13.40
2023-01-11T13:31:34.789Z,18.27
2023-01-11T13:34:08.737Z,16.13
2023-01-11T13:36:46.629Z,15.53
2023-01-11T13:39:23.412Z,16.17
2023-01-11T13:41:58.249Z,16.33
2023-01-11T13:44:31.537Z,17.47
2023-01-11T13:47:08.846Z,15.87
2023-01-11T13:49:49.474Z,15.07
2023-01-11T13:52:21.423Z,16.07
2023-01-11T13:55:03.180Z,16.83
2023-01-11T13:57:44.555Z,17.50
2023-01-11T14:00:25.066Z,18.23
2023-01-11T14:03:02.214Z,17.83
2023-01-11T14:05:40.347Z,19.93
2023-01-11T14:08:47.971Z,19.80
2023-01-11T14:11:27.241Z,17.07
2023-01-11T14:14:26.545Z,18.27
2023-01-11T14:17:36.559Z,18.93
2023-01-11T14:20:22.105Z,17.87
2023-01-11T14:23:05.223Z,20.20
2023-01-11T14:25:41.024Z,16.57
2023-01-11T14:28:44.536Z,15.00
2023-01-11T14:32:00.705Z,15.60
2023-01-11T14:35:32.871Z,16.23
2023-01-11T14:38:36.757Z,15.10
2023-01-11T14:41:57.137Z,17.93
2023-01-11T14:44:42.821Z,15.33
2023-01-11T14:47:33.978Z,18.00
2023-01-11T14:50:21.983Z,17.33
2023-01-11T14:52:52.228Z,16.17
2023-01-11T14:55:26.318Z,16.27
2023-01-11T14:58:18.907Z,16.30
2023-01-11T15:01:11.327Z,16.13
2023-01-11T15:03:56.407Z,14.97
2023-01-11T15:06:25.671Z,19.03
2023-01-11T15:08:56.170Z,18.43
2023-01-11T15:11:35.725Z,16.80
2023-01-11T15:14:24.233Z,19.70
2023-01-11T15:17:13.554Z,15.90
2023-01-11T15:19:45.021Z,20.27
2023-01-11T15:22:30.555Z,17.93
2023-01-11T15:25:02.468Z,14.63
2023-01-11T15:27:35.834Z,20.10
2023-01-11T15:30:07.345Z,17.90
2023-01-11T15:32:37.432Z,20.00
2023-01-11T15:35:34.827Z,18.87
2023-01-11T15:38:16.313Z,19.70
2023-01-11T15:40:47.615Z,20.07
2023-01-11T15:43:56.583Z,19.37
2023-01-11T15:47:01.520Z,18.30
2023-01-11T15:50:29.487Z,20.63
2023-01-11T15:53:43.313Z,17.03
2023-01-11T15:56:44.910Z,20.97
2023-01-11T15:59:39.587Z,22.53
2023-01-11T16:03:13.740Z,21.80
2023-01-11T16:05:51.350Z,19.87
2023-01-11T16:08:32.225Z,18.60
2023-01-11T16:11:20.102Z,20.08
2023-01-11T16:14:14.743Z,17.30
2023-01-11T16:16:44.989Z,18.92
2023-01-11T16:19:21.092Z,18.38
2023-01-11T16:21:53.232Z,17.20
2023-01-11T16:24:28.944Z,16.60
2023-01-11T16:27:00.567Z,21.63
2023-01-11T16:29:35.698Z,15.87
2023-01-11T16:32:07.349Z,18.33
2023-01-11T16:34:43.121Z,17.13
2023-01-11T16:37:28.569Z,17.77
2023-01-11T16:40:03.408Z,15.70
2023-01-11T16:42:36.889Z,16.27
2023-01-11T16:45:10.811Z,17.40
2023-01-11T16:47:40.503Z,20.93
2023-01-11T16:50:22.486Z,18.80
2023-01-11T16:52:54.330Z,23.63
2023-01-11T16:55:32.633Z,19.77
2023-01-11T16:58:04.044Z,19.03
2023-01-11T17:00:39.721Z,18.83
2023-01-11T17:03:24.092Z,17.67
2023-01-11T17:06:20.700Z,18.40
2023-01-11T17:08:52.373Z,19.00
2023-01-11T17:11:33.671Z,20.67
2023-01-11T17:14:43.126Z,19.03
2023-01-11T17:17:13.177Z,18.77
2023-01-11T17:19:47.786Z,18.43
2023-01-11T17:22:22.865Z,19.87
2023-01-11T17:24:55.830Z,22.77
2023-01-11T17:27:29.551Z,18.37
2023-01-11T17:29:59.374Z,19.87
2023-01-11T17:32:37.455Z,19.90
2023-01-11T17:35:11.182Z,18.83
2023-01-11T17:37:40.187Z,18.30
2023-01-11T17:40:23.258Z,22.37
2023-01-11T17:43:11.489Z,18.77
2023-01-11T17:45:40.410Z,20.20
2023-01-11T17:48:15.239Z,20.33
2023-01-11T17:50:49.939Z,21.37
2023-01-11T17:53:24.265Z,24.53
2023-01-11T17:55:54.997Z,16.33
2023-01-11T17:58:29.843Z,17.80
2023-01-11T18:01:25.597Z,17.03
2023-01-11T18:03:57.871Z,15.67
2023-01-11T18:06:33.661Z,17.10
2023-01-11T18:09:04.956Z,18.47
2023-01-11T18:11:36.930Z,17.37
2023-01-11T18:14:18.468Z,17.80
2023-01-11T18:17:01.764Z,18.23
2023-01-11T18:19:39.168Z,15.60
2023-01-11T18:22:30.045Z,16.33
2023-01-11T18:25:00.259Z,18.60
2023-01-11T18:27:35.668Z,17.17
2023-01-11T18:30:11.428Z,16.17
2023-01-11T18:32:44.281Z,15.57
2023-01-11T18:35:19.419Z,17.70
2023-01-11T18:37:48.096Z,15.43
2023-01-11T18:40:21.500Z,17.47
2023-01-11T18:42:53.302Z,14.87
2023-01-11T18:45:25.306Z,15.90
2023-01-11T18:47:53.992Z,15.93
2023-01-11T18:50:24.013Z,18.33
2023-01-11T18:52:52.453Z,21.37
2023-01-11T18:55:20.794Z,17.07
2023-01-11T18:57:49.153Z,17.60
2023-01-11T19:00:18.962Z,19.60
2023-01-11T19:02:48.880Z,19.40
2023-01-11T19:05:19.761Z,19.63
2023-01-11T19:07:48.947Z,18.30
2023-01-11T19:10:19.774Z,18.73
2023-01-11T19:12:48.518Z,18.87
2023-01-11T19:15:17.673Z,18.90
2023-01-11T19:17:46.077Z,19.07
2023-01-11T19:20:16.904Z,22.13
2023-01-11T19:22:47.699Z,17.77
2023-01-11T19:25:16.200Z,15.43
2023-01-11T19:27:45.022Z,15.40
2023-01-11T19:30:15.533Z,15.57
2023-01-11T19:32:43.872Z,15.63
2023-01-11T19:35:12.373Z,15.47
2023-01-11T19:37:42.169Z,14.60
2023-01-11T19:40:12.274Z,16.37
2023-01-11T19:42:40.705Z,14.40
2023-01-11T19:45:11.155Z,16.13
2023-01-11T19:47:41.154Z,15.33
2023-01-11T19:50:11.614Z,17.00
2023-01-11T19:52:41.341Z,15.37
2023-01-11T19:55:10.879Z,15.00
2023-01-11T19:57:39.269Z,14.43
2023-01-11T20:00:09.558Z,14.10
2023-01-11T20:02:38.019Z,15.10
2023-01-11T20:05:08.286Z,14.27
2023-01-11T20:07:36.986Z,17.83
2023-01-11T20:10:07.496Z,15.73
2023-01-11T20:12:36.192Z,17.30
2023-01-11T20:15:04.756Z,17.47
2023-01-11T20:17:33.736Z,15.80
2023-01-11T20:20:02.126Z,17.80
2023-01-11T20:22:30.484Z,21.10
2023-01-11T20:25:00.433Z,22.47
2023-01-11T20:27:30.862Z,20.67
2023-01-11T20:29:59.183Z,20.37
2023-01-11T20:32:41.025Z,19.13
2023-01-11T20:35:11.580Z,22.30
2023-01-11T20:37:40.000Z,21.37
2023-01-11T20:40:11.912Z,23.80
2023-01-11T20:42:42.990Z,20.97
2023-01-11T20:45:12.936Z,21.47
2023-01-11T20:47:41.311Z,24.77
2023-01-11T20:50:11.300Z,25.07
2023-01-11T20:52:39.608Z,21.70
2023-01-11T20:55:09.309Z,24.73
2023-01-11T20:57:38.032Z,25.13
2023-01-11T21:02:38.462Z,27.10
2023-01-11T21:05:07.963Z,25.40
2023-01-11T21:07:36.667Z,24.37
2023-01-11T21:10:05.666Z,23.97
2023-01-11T21:12:34.053Z,25.23
2023-01-11T21:15:02.518Z,26.20
2023-01-11T21:17:32.213Z,22.20
2023-01-11T21:20:00.590Z,25.77
2023-01-11T21:22:28.919Z,25.87
2023-01-11T21:24:57.338Z,26.90
2023-01-11T21:27:25.871Z,27.70
2023-01-11T21:29:54.255Z,28.53
2023-01-11T21:32:22.786Z,27.33
2023-01-11T21:34:52.456Z,25.57
2023-01-11T21:37:23.911Z,27.70
2023-01-11T21:39:52.662Z,26.00
2023-01-11T21:42:21.089Z,27.17
2023-01-11T21:44:49.712Z,25.93
2023-01-11T21:47:19.737Z,28.13
2023-01-11T21:49:48.069Z,28.27
2023-01-11T21:52:17.844Z,29.40
2023-01-11T21:54:46.210Z,31.47
2023-01-11T21:57:16.727Z,27.83
2023-01-11T21:59:45.209Z,29.80
2023-01-11T22:02:14.149Z,28.17
2023-01-11T22:04:42.577Z,26.17
2023-01-11T22:07:10.944Z,28.50
2023-01-11T22:09:53.229Z,27.20
2023-01-11T22:12:29.268Z,29.80
2023-01-11T22:14:57.637Z,28.90
2023-01-11T22:17:26.062Z,28.87
2023-01-11T22:19:54.521Z,27.23
2023-01-11T22:22:22.878Z,28.73
2023-01-11T22:24:52.637Z,29.73
2023-01-11T22:27:21.134Z,27.80
2023-01-11T22:29:50.921Z,29.67
2023-01-11T22:32:19.850Z,30.50
2023-01-11T22:34:48.269Z,29.47
2023-01-11T22:37:16.613Z,29.73
2023-01-11T22:39:44.893Z,28.07
2023-01-11T22:42:14.609Z,28.27
2023-01-11T22:44:42.999Z,27.27
2023-01-11T22:47:11.349Z,28.87
2023-01-11T22:49:39.673Z,27.07
2023-01-11T22:52:08.059Z,27.27
2023-01-11T22:54:36.383Z,26.90
2023-01-11T22:57:04.750Z,29.83
2023-01-11T22:59:34.425Z,27.67
2023-01-11T23:02:02.789Z,23.53
2023-01-11T23:04:33.240Z,27.87
2023-01-11T23:07:01.619Z,28.67
2023-01-11T23:09:30.038Z,26.57
2023-01-11T23:12:16.072Z,28.73
2023-01-11T23:14:45.749Z,25.27
2023-01-11T23:17:14.394Z,24.60
2023-01-11T23:19:43.811Z,29.53
2023-01-11T23:22:12.271Z,29.80
2023-01-11T23:24:41.243Z,26.47
2023-01-11T23:27:09.743Z,26.97
2023-01-11T23:29:38.145Z,28.87
2023-01-11T23:32:07.983Z,26.70
2023-01-11T23:34:36.408Z,28.17
2023-01-11T23:37:05.187Z,28.50
2023-01-11T23:39:33.781Z,26.97
2023-01-11T23:42:34.161Z,25.83
2023-01-11T23:45:02.537Z,23.73
2023-01-11T23:47:31.891Z,24.93
2023-01-11T23:50:01.619Z,28.63
2023-01-11T23:52:33.048Z,27.53
2023-01-11T23:55:01.557Z,27.80
2023-01-11T23:57:29.990Z,28.57
2023-01-11T23:59:58.443Z,25.20
